createdAt,value
2023-04-06T00:01:09.637Z,4.00
2023-04-06T00:03:36.819Z,3.63
2023-04-06T00:06:05.214Z,4.93
2023-04-06T00:08:32.221Z,8.02
2023-04-06T00:10:59.394Z,5.63
2023-04-06T00:13:26.410Z,6.65
2023-04-06T00:15:53.600Z,6.00
2023-04-06T00:18:20.786Z,3.67
2023-04-06T00:20:47.915Z,4.18
2023-04-06T00:23:15.007Z,4.82
2023-04-06T00:25:42.283Z,4.65
2023-04-06T00:28:09.369Z,5.57
2023-04-06T00:30:36.368Z,5.28
2023-04-06T00:33:03.564Z,4.47
2023-04-06T00:35:30.805Z,5.88
2023-04-06T00:37:57.822Z,10.00
2023-04-06T00:40:25.004Z,6.38
2023-04-06T00:42:52.057Z,5.05
2023-04-06T00:45:19.480Z,5.97
2023-04-06T00:47:46.679Z,5.63
2023-04-06T00:50:14.234Z,5.60
2023-04-06T00:52:41.352Z,4.90
2023-04-06T00:55:11.107Z,6.53
2023-04-06T00:57:42.145Z,3.75
2023-04-06T01:00:12.566Z,6.70
2023-04-06T01:02:40.413Z,4.00
2023-04-06T01:05:08.923Z,4.97
2023-04-06T01:07:46.971Z,6.60
2023-04-06T01:10:28.528Z,3.60
2023-04-06T01:13:12.957Z,5.82
2023-04-06T01:15:55.471Z,6.38
2023-04-06T01:18:32.251Z,5.40
2023-04-06T01:21:26.235Z,6.82
2023-04-06T01:24:06.837Z,9.05
2023-04-06T01:26:45.968Z,6.13
2023-04-06T01:29:13.625Z,4.10
2023-04-06T01:31:41.371Z,5.82
2023-04-06T01:34:08.396Z,7.90
2023-04-06T01:36:35.632Z,6.20
2023-04-06T01:39:18.088Z,5.25
2023-04-06T01:41:48.051Z,6.55
2023-04-06T01:44:19.134Z,5.25
2023-04-06T01:46:51.044Z,6.50
2023-04-06T01:49:19.895Z,6.47
2023-04-06T01:51:52.862Z,6.30
2023-04-06T01:54:19.873Z,6.35
2023-04-06T01:57:06.932Z,8.02
2023-04-06T01:59:56.020Z,6.57
2023-04-06T02:02:30.091Z,9.02
2023-04-06T02:05:03.183Z,4.32
2023-04-06T02:07:30.813Z,4.57
2023-04-06T02:09:57.892Z,8.30
2023-04-06T02:12:35.968Z,5.45
2023-04-06T02:15:04.688Z,5.88
2023-04-06T02:17:31.744Z,6.47
2023-04-06T02:19:58.932Z,7.60
2023-04-06T02:22:25.969Z,8.43
2023-04-06T02:24:52.932Z,7.95
2023-04-06T02:27:19.859Z,8.32
2023-04-06T02:29:47.721Z,5.13
2023-04-06T02:32:18.613Z,9.20
2023-04-06T02:34:46.498Z,9.10
2023-04-06T02:37:14.089Z,5.88
2023-04-06T02:39:41.228Z,8.18
2023-04-06T02:42:09.896Z,5.00
2023-04-06T02:44:36.891Z,5.63
2023-04-06T02:47:03.991Z,8.63
2023-04-06T02:49:31.427Z,10.48
2023-04-06T02:51:59.808Z,7.63
2023-04-06T02:54:30.856Z,5.80
2023-04-06T02:56:58.153Z,9.88
2023-04-06T02:59:33.470Z,6.32
2023-04-06T03:02:08.326Z,5.73
2023-04-06T03:04:36.388Z,6.72
2023-04-06T03:07:06.266Z,6.55
2023-04-06T03:09:39.461Z,7.22
2023-04-06T03:12:09.206Z,7.57
2023-04-06T03:14:51.158Z,6.18
2023-04-06T03:17:18.198Z,4.50
2023-04-06T03:19:45.917Z,6.75
2023-04-06T03:22:14.013Z,6.30
2023-04-06T03:24:41.275Z,7.20
2023-04-06T03:27:08.298Z,5.50
2023-04-06T03:29:36.653Z,6.57
2023-04-06T03:32:05.349Z,5.82
2023-04-06T03:34:40.418Z,5.00
2023-04-06T03:37:10.699Z,6.18
2023-04-06T03:39:44.539Z,5.10
2023-04-06T03:42:16.674Z,6.57
2023-04-06T03:44:50.852Z,6.43
2023-04-06T03:47:18.174Z,6.80
2023-04-06T03:49:45.180Z,6.47
2023-04-06T03:52:14.058Z,7.57
2023-04-06T03:54:41.215Z,5.95
2023-04-06T03:57:11.250Z,7.40
2023-04-06T03:59:38.305Z,6.80
2023-04-06T04:02:05.653Z,11.60
2023-04-06T04:04:32.796Z,7.10
2023-04-06T04:06:59.789Z,6.65
2023-04-06T04:09:29.285Z,7.90
2023-04-06T04:11:56.863Z,8.57
2023-04-06T04:14:24.051Z,5.18
2023-04-06T04:16:51.205Z,10.10
2023-04-06T04:19:18.752Z,6.80
2023-04-06T04:21:47.355Z,7.70
2023-04-06T04:24:18.692Z,6.60
2023-04-06T04:26:45.639Z,6.75
2023-04-06T04:29:12.782Z,10.82
2023-04-06T04:31:39.786Z,9.65
2023-04-06T04:34:14.986Z,7.00
2023-04-06T04:36:45.264Z,8.30
2023-04-06T04:39:18.049Z,7.57
2023-04-06T04:41:50.418Z,5.60
2023-04-06T04:44:17.690Z,6.78
2023-04-06T04:46:44.733Z,8.30
2023-04-06T04:49:14.312Z,7.32
2023-04-06T04:51:42.249Z,7.95
2023-04-06T04:54:12.658Z,6.18
2023-04-06T04:56:41.251Z,6.43
2023-04-06T04:59:27.931Z,8.13
2023-04-06T05:02:01.071Z,7.80
2023-04-06T05:04:40.744Z,7.30
2023-04-06T05:07:11.178Z,7.35
2023-04-06T05:09:40.976Z,6.60
2023-04-06T05:12:08.741Z,9.18
2023-04-06T05:14:43.429Z,10.30
2023-04-06T05:17:15.402Z,7.60
2023-04-06T05:19:42.752Z,6.10
2023-04-06T05:22:10.991Z,7.45
2023-04-06T05:24:41.760Z,9.82
2023-04-06T05:27:09.237Z,7.13
2023-04-06T05:29:36.655Z,9.27
2023-04-06T05:32:04.374Z,8.55
2023-04-06T05:34:32.059Z,10.65
2023-04-06T05:37:03.272Z,9.45
2023-04-06T05:39:30.478Z,8.95
2023-04-06T05:41:57.696Z,12.43
2023-04-06T05:44:48.355Z,9.15
2023-04-06T05:47:17.068Z,11.48
2023-04-06T05:49:47.642Z,11.90
2023-04-06T05:52:22.725Z,9.38
2023-04-06T05:54:51.176Z,9.63
2023-04-06T05:57:18.688Z,12.18
2023-04-06T05:59:46.232Z,13.75
2023-04-06T06:02:15.379Z,12.27
2023-04-06T06:04:46.074Z,12.50
2023-04-06T06:07:16.118Z,15.60
2023-04-06T06:09:48.367Z,9.93
2023-04-06T06:12:23.466Z,16.08
2023-04-06T06:14:51.557Z,14.73
2023-04-06T06:17:19.987Z,17.17
2023-04-06T06:19:49.834Z,17.92
2023-04-06T06:22:17.526Z,16.08
2023-04-06T06:24:47.390Z,15.52
2023-04-06T06:27:17.428Z,17.60
2023-04-06T06:29:47.534Z,14.88
2023-04-06T06:32:15.769Z,13.57
2023-04-06T06:34:43.402Z,17.85
2023-04-06T06:37:11.143Z,14.82
2023-04-06T06:39:38.996Z,13.50
2023-04-06T06:42:06.558Z,14.38
2023-04-06T06:45:01.987Z,15.40
2023-04-06T06:47:29.091Z,15.80
2023-04-06T06:49:56.420Z,15.57
2023-04-06T06:52:25.285Z,14.38
2023-04-06T06:54:52.413Z,17.77
2023-04-06T06:57:20.639Z,14.88
2023-04-06T06:59:48.682Z,18.17
2023-04-06T07:02:16.365Z,15.35
2023-04-06T07:04:43.441Z,14.18
2023-04-06T07:07:10.601Z,18.08
2023-04-06T07:09:38.251Z,18.25
2023-04-06T07:12:07.421Z,17.65
2023-04-06T07:14:34.565Z,14.18
2023-04-06T07:17:01.889Z,18.60
2023-04-06T07:19:29.257Z,15.88
2023-04-06T07:21:57.388Z,15.65
2023-04-06T07:24:24.527Z,16.58
2023-04-06T07:26:51.931Z,17.40
2023-04-06T07:29:19.196Z,17.85
2023-04-06T07:31:46.437Z,15.98
2023-04-06T07:34:14.162Z,18.23
2023-04-06T07:36:41.221Z,17.30
2023-04-06T07:39:08.685Z,18.10
2023-04-06T07:41:36.544Z,16.20
2023-04-06T07:44:04.654Z,13.40
2023-04-06T07:46:32.773Z,16.23
2023-04-06T07:49:04.716Z,17.98
2023-04-06T07:51:37.505Z,19.33
2023-04-06T07:54:04.719Z,16.55
2023-04-06T07:56:31.910Z,16.52
2023-04-06T07:58:59.277Z,14.68
2023-04-06T08:01:28.426Z,17.17
2023-04-06T08:03:56.889Z,16.75
2023-04-06T08:06:24.237Z,16.15
2023-04-06T08:08:51.363Z,17.73
2023-04-06T08:11:18.716Z,15.52
2023-04-06T08:13:45.805Z,18.08
2023-04-06T08:16:13.018Z,14.93
2023-04-06T08:18:40.177Z,16.50
2023-04-06T08:21:07.192Z,17.10
2023-04-06T08:23:34.484Z,14.73
2023-04-06T08:26:01.630Z,18.77
2023-04-06T08:28:28.823Z,19.60
2023-04-06T08:30:56.058Z,15.25
2023-04-06T08:33:23.301Z,20.02
2023-04-06T08:35:50.898Z,22.55
2023-04-06T08:38:18.101Z,20.42
2023-04-06T08:40:45.659Z,21.65
2023-04-06T08:43:15.810Z,20.05
2023-04-06T08:45:44.287Z,14.90
2023-04-06T08:48:13.439Z,16.20
2023-04-06T08:50:41.702Z,16.83
2023-04-06T08:53:09.285Z,18.23
2023-04-06T08:55:37.282Z,19.40
2023-04-06T08:58:08.474Z,19.63
2023-04-06T09:00:39.915Z,18.85
2023-04-06T09:03:08.697Z,18.95
2023-04-06T09:05:36.683Z,23.40
2023-04-06T09:08:04.261Z,20.58
2023-04-06T09:10:31.649Z,17.77
2023-04-06T09:13:07.778Z,16.95
2023-04-06T09:15:35.877Z,17.73
2023-04-06T09:18:03.121Z,20.08
2023-04-06T09:20:30.533Z,17.48
2023-04-06T09:22:57.665Z,19.35
2023-04-06T09:25:32.237Z,17.23
2023-04-06T09:28:05.160Z,16.15
2023-04-06T09:30:33.429Z,17.90
2023-04-06T09:33:01.392Z,19.85
2023-04-06T09:35:31.010Z,21.75
2023-04-06T09:37:58.302Z,17.17
2023-04-06T09:40:26.179Z,17.33
2023-04-06T09:42:55.576Z,19.27
2023-04-06T09:45:22.735Z,16.52
2023-04-06T09:47:52.814Z,20.67
2023-04-06T09:50:21.580Z,17.58
2023-04-06T09:52:52.219Z,19.83
2023-04-06T09:55:31.652Z,18.48
2023-04-06T09:58:08.298Z,22.88
2023-04-06T10:00:50.572Z,19.77
2023-04-06T10:03:46.608Z,20.60
2023-04-06T10:06:18.458Z,21.25
2023-04-06T10:08:48.796Z,21.02
2023-04-06T10:11:17.103Z,19.75
2023-04-06T10:13:46.336Z,26.20
2023-04-06T10:16:16.118Z,23.00
2023-04-06T10:18:59.911Z,22.67
2023-04-06T10:21:29.466Z,28.73
2023-04-06T10:24:02.625Z,27.08
2023-04-06T10:26:29.732Z,21.33
2023-04-06T10:29:04.270Z,24.25
2023-04-06T10:31:31.525Z,23.52
2023-04-06T10:34:01.240Z,21.80
2023-04-06T10:36:33.472Z,22.42
2023-04-06T10:39:04.978Z,23.73
2023-04-06T10:41:44.088Z,20.38
2023-04-06T10:44:25.023Z,22.40
2023-04-06T10:46:58.036Z,26.45
2023-04-06T10:49:27.773Z,21.00
2023-04-06T10:51:57.241Z,20.40
2023-04-06T10:54:27.284Z,24.50
2023-04-06T10:56:54.743Z,22.30
2023-04-06T10:59:23.365Z,22.20
2023-04-06T11:01:50.864Z,20.92
2023-04-06T11:04:19.601Z,20.45
2023-04-06T11:06:51.212Z,17.30
2023-04-06T11:09:30.296Z,16.92
2023-04-06T11:11:58.154Z,17.00
2023-04-06T11:14:25.661Z,23.17
2023-04-06T11:16:52.971Z,21.10
2023-04-06T11:19:20.438Z,16.30
2023-04-06T11:21:49.688Z,14.63
2023-04-06T11:24:20.509Z,17.63
2023-04-06T11:26:54.441Z,13.95
2023-04-06T11:29:33.050Z,16.38
2023-04-06T11:32:03.094Z,24.45
2023-04-06T11:34:36.502Z,19.75
2023-04-06T11:37:09.057Z,19.38
2023-04-06T11:39:51.763Z,14.40
2023-04-06T11:42:30.758Z,15.98
2023-04-06T11:44:59.377Z,16.98
2023-04-06T11:47:45.386Z,13.32
2023-04-06T11:50:15.103Z,16.52
2023-04-06T11:52:43.530Z,13.95
2023-04-06T11:55:19.246Z,16.27
2023-04-06T12:00:14.276Z,17.35
2023-04-06T12:02:47.159Z,14.07
2023-04-06T12:05:14.617Z,13.75
2023-04-06T12:10:16.877Z,19.88
2023-04-06T12:12:44.416Z,19.40
2023-04-06T12:15:11.788Z,12.68
2023-04-06T12:17:39.204Z,13.88
2023-04-06T12:20:22.097Z,20.67
2023-04-06T12:22:52.610Z,14.75
2023-04-06T12:25:19.841Z,14.35
2023-04-06T12:27:47.018Z,16.88
2023-04-06T12:30:14.429Z,16.05
2023-04-06T12:32:41.720Z,14.05
2023-04-06T12:35:10.252Z,12.90
2023-04-06T12:37:38.003Z,15.82
2023-04-06T12:40:06.019Z,13.90
2023-04-06T12:42:33.197Z,14.35
2023-04-06T12:45:00.473Z,13.27
2023-04-06T12:47:27.703Z,16.60
2023-04-06T12:49:55.813Z,13.95
2023-04-06T12:52:22.996Z,15.20
2023-04-06T12:54:51.296Z,12.55
2023-04-06T12:57:18.663Z,13.80
2023-04-06T12:59:46.012Z,14.80
2023-04-06T13:02:13.200Z,13.32
2023-04-06T13:04:40.520Z,12.95
2023-04-06T13:07:07.762Z,13.88
2023-04-06T13:09:35.009Z,17.73
2023-04-06T13:12:02.235Z,15.65
2023-04-06T13:14:29.212Z,12.15
2023-04-06T13:16:59.657Z,12.65
2023-04-06T13:19:27.644Z,13.45
2023-04-06T13:21:54.641Z,12.65
2023-04-06T13:24:22.831Z,9.77
2023-04-06T13:26:52.403Z,11.70
2023-04-06T13:29:19.557Z,10.20
2023-04-06T13:31:46.675Z,10.27
2023-04-06T13:34:13.933Z,13.35
2023-04-06T13:36:42.916Z,10.70
2023-04-06T13:39:10.078Z,11.20
2023-04-06T13:41:37.268Z,11.05
2023-04-06T13:44:04.229Z,10.70
2023-04-06T13:46:31.202Z,13.02
2023-04-06T13:48:58.147Z,13.18
2023-04-06T13:51:25.352Z,11.23
2023-04-06T13:53:54.709Z,10.27
2023-04-06T13:56:22.025Z,10.02
2023-04-06T13:58:49.105Z,9.15
2023-04-06T14:01:16.494Z,10.60
2023-04-06T14:03:46.472Z,11.60
2023-04-06T14:08:44.613Z,9.63
2023-04-06T14:11:14.126Z,9.43
2023-04-06T14:13:42.985Z,11.15
2023-04-06T14:16:10.322Z,11.05
2023-04-06T14:18:38.115Z,13.48
2023-04-06T14:21:05.347Z,11.15
2023-04-06T14:23:33.869Z,9.55
2023-04-06T14:26:09.757Z,10.05
2023-04-06T14:31:16.126Z,9.40
2023-04-06T14:33:44.083Z,13.00
2023-04-06T14:36:12.144Z,10.23
2023-04-06T14:38:40.411Z,13.32
2023-04-06T14:41:09.253Z,9.77
2023-04-06T14:43:36.551Z,10.85
2023-04-06T14:46:03.848Z,10.00
2023-04-06T14:48:30.929Z,13.88
2023-04-06T14:50:58.686Z,12.15
2023-04-06T14:53:26.158Z,12.25
2023-04-06T14:55:53.819Z,8.63
2023-04-06T14:58:22.508Z,12.45
2023-04-06T15:01:03.708Z,10.13
2023-04-06T15:03:31.352Z,11.35
2023-04-06T15:05:58.778Z,11.60
2023-04-06T15:08:26.418Z,12.20
2023-04-06T15:10:55.615Z,10.50
2023-04-06T15:13:22.676Z,12.65
2023-04-06T15:15:52.599Z,13.02
2023-04-06T15:18:21.304Z,10.63
2023-04-06T15:20:48.705Z,12.02
2023-04-06T15:23:16.106Z,12.68
2023-04-06T15:25:43.182Z,13.38
2023-04-06T15:28:10.317Z,17.88
2023-04-06T15:30:37.913Z,18.00
2023-04-06T15:33:07.910Z,14.60
2023-04-06T15:35:40.784Z,12.52
2023-04-06T15:38:11.749Z,11.80
2023-04-06T15:40:47.528Z,18.83
2023-04-06T15:45:42.225Z,11.32
2023-04-06T15:48:09.699Z,9.68
2023-04-06T15:50:38.379Z,10.20
2023-04-06T15:53:05.660Z,13.10
2023-04-06T15:55:32.711Z,11.80
2023-04-06T15:57:59.760Z,14.15
2023-04-06T16:00:28.651Z,12.45
2023-04-06T16:02:57.058Z,12.27
2023-04-06T16:05:24.376Z,13.73
2023-04-06T16:07:51.368Z,12.13
2023-04-06T16:10:18.409Z,13.68
2023-04-06T16:12:45.451Z,14.20
2023-04-06T16:15:12.983Z,14.10
2023-04-06T16:17:40.218Z,13.13
2023-04-06T16:20:08.393Z,14.65
2023-04-06T16:22:36.704Z,12.60
2023-04-06T16:25:04.160Z,14.93
2023-04-06T16:27:31.269Z,12.45
2023-04-06T16:29:59.024Z,13.15
2023-04-06T16:32:26.073Z,12.57
2023-04-06T16:34:53.230Z,14.18
2023-04-06T16:37:20.797Z,15.35
2023-04-06T16:39:48.026Z,16.95
2023-04-06T16:42:17.657Z,13.48
2023-04-06T16:44:44.758Z,17.58
2023-04-06T16:47:11.773Z,16.83
2023-04-06T16:49:38.837Z,17.83
2023-04-06T16:52:06.381Z,13.73
2023-04-06T16:54:34.663Z,16.52
2023-04-06T16:57:04.347Z,15.60
2023-04-06T16:59:33.269Z,17.77
2023-04-06T17:02:00.602Z,14.65
2023-04-06T17:04:28.131Z,14.57
2023-04-06T17:06:55.545Z,15.80
2023-04-06T17:09:24.931Z,12.73
2023-04-06T17:11:52.585Z,17.33
2023-04-06T17:14:19.600Z,17.52
2023-04-06T17:16:46.577Z,16.13
2023-04-06T17:19:13.637Z,15.18
2023-04-06T17:21:42.182Z,15.25
2023-04-06T17:24:09.440Z,16.90
2023-04-06T17:26:36.434Z,16.35
2023-04-06T17:29:03.668Z,17.00
2023-04-06T17:31:31.400Z,15.70
2023-04-06T17:33:59.746Z,17.63
2023-04-06T17:36:28.472Z,16.10
2023-04-06T17:38:55.979Z,14.02
2023-04-06T17:41:24.283Z,16.65
2023-04-06T17:43:51.608Z,16.40
2023-04-06T17:46:20.628Z,19.33
2023-04-06T17:48:47.955Z,16.70
2023-04-06T17:51:18.851Z,20.40
2023-04-06T17:53:46.684Z,16.95
2023-04-06T17:56:14.179Z,17.98
2023-04-06T17:58:41.794Z,16.88
2023-04-06T18:01:11.538Z,17.45
2023-04-06T18:03:38.937Z,15.60
2023-04-06T18:06:16.702Z,16.35
2023-04-06T18:08:44.302Z,16.58
2023-04-06T18:11:17.199Z,15.75
2023-04-06T18:13:47.777Z,18.05
2023-04-06T18:16:17.467Z,17.80
2023-04-06T18:18:44.875Z,17.42
2023-04-06T18:21:12.003Z,18.67
2023-04-06T18:23:39.026Z,15.73
2023-04-06T18:26:06.794Z,12.88
2023-04-06T18:28:34.270Z,17.77
2023-04-06T18:31:02.530Z,14.10
2023-04-06T18:33:29.965Z,14.80
2023-04-06T18:35:57.113Z,14.82
2023-04-06T18:38:24.352Z,15.05
2023-04-06T18:40:52.624Z,14.40
2023-04-06T18:43:19.687Z,14.63
2023-04-06T18:45:46.876Z,11.88
2023-04-06T18:48:14.222Z,15.07
2023-04-06T18:50:41.240Z,15.18
2023-04-06T18:53:08.197Z,14.77
2023-04-06T18:55:36.515Z,13.60
2023-04-06T18:58:03.478Z,15.73
2023-04-06T19:00:30.745Z,16.70
2023-04-06T19:02:58.215Z,15.02
2023-04-06T19:05:25.431Z,15.43
2023-04-06T19:07:52.867Z,14.30
2023-04-06T19:10:20.203Z,17.23
2023-04-06T19:12:48.017Z,14.80
2023-04-06T19:15:15.799Z,12.73
2023-04-06T19:17:43.138Z,15.75
2023-04-06T19:20:10.938Z,15.38
2023-04-06T19:22:38.255Z,15.43
2023-04-06T19:25:07.750Z,13.13
2023-04-06T19:27:35.134Z,15.02
2023-04-06T19:30:02.442Z,13.88
2023-04-06T19:32:30.313Z,13.48
2023-04-06T19:35:01.625Z,13.45
2023-04-06T19:37:29.072Z,11.75
2023-04-06T19:39:56.169Z,11.23
2023-04-06T19:42:24.097Z,13.40
2023-04-06T19:44:51.462Z,14.57
2023-04-06T19:47:19.068Z,12.57
2023-04-06T19:49:46.187Z,13.00
2023-04-06T19:52:13.485Z,11.30
2023-04-06T19:54:40.604Z,13.60
2023-04-06T19:57:08.229Z,14.98
2023-04-06T19:59:35.401Z,15.65
2023-04-06T20:02:02.943Z,13.20
2023-04-06T20:04:30.564Z,15.98
2023-04-06T20:06:57.781Z,14.00
2023-04-06T20:09:25.324Z,14.68
2023-04-06T20:11:54.339Z,14.38
2023-04-06T20:14:22.437Z,17.58
2023-04-06T20:16:50.689Z,12.75
2023-04-06T20:19:18.299Z,15.38
2023-04-06T20:21:45.438Z,18.02
2023-04-06T20:24:12.421Z,15.25
2023-04-06T20:26:39.461Z,16.55
2023-04-06T20:29:06.439Z,16.48
2023-04-06T20:31:33.902Z,16.48
2023-04-06T20:34:01.580Z,15.70
2023-04-06T20:36:32.060Z,14.80
2023-04-06T20:38:59.038Z,16.27
2023-04-06T20:41:26.050Z,17.45
2023-04-06T20:43:53.009Z,17.38
2023-04-06T20:46:20.718Z,16.13
2023-04-06T20:48:47.871Z,16.00
2023-04-06T20:51:20.393Z,17.38
2023-04-06T20:53:48.510Z,16.30
2023-04-06T20:56:15.849Z,19.73
2023-04-06T20:58:42.820Z,17.17
2023-04-06T21:01:17.714Z,17.17
2023-04-06T21:03:45.350Z,16.60
2023-04-06T21:06:12.590Z,14.25
2023-04-06T21:08:39.523Z,19.38
2023-04-06T21:11:06.608Z,15.85
2023-04-06T21:13:34.800Z,15.73
2023-04-06T21:16:02.466Z,16.42
2023-04-06T21:18:32.851Z,18.65
2023-04-06T21:20:59.877Z,17.50
2023-04-06T21:23:27.064Z,17.33
2023-04-06T21:25:57.081Z,19.55
2023-04-06T21:28:25.998Z,20.40
2023-04-06T21:30:54.273Z,18.73
2023-04-06T21:33:21.435Z,19.13
2023-04-06T21:35:48.827Z,20.60
2023-04-06T21:38:16.125Z,20.85
2023-04-06T21:40:43.079Z,21.70
2023-04-06T21:43:10.145Z,21.38
2023-04-06T21:45:37.186Z,19.55
2023-04-06T21:48:04.544Z,19.58
2023-04-06T21:50:31.508Z,23.15
2023-04-06T21:52:58.477Z,21.90
2023-04-06T21:55:25.537Z,22.15
2023-04-06T21:57:52.519Z,23.77
2023-04-06T22:00:20.001Z,23.02
2023-04-06T22:02:47.436Z,24.85
2023-04-06T22:05:14.832Z,23.00
2023-04-06T22:07:42.002Z,21.85
2023-04-06T22:10:09.120Z,24.95
2023-04-06T22:12:36.123Z,21.73
2023-04-06T22:15:03.331Z,17.17
2023-04-06T22:17:31.334Z,23.10
2023-04-06T22:19:58.351Z,25.75
2023-04-06T22:22:25.606Z,24.15
2023-04-06T22:24:52.687Z,21.48
2023-04-06T22:27:19.727Z,21.70
2023-04-06T22:29:46.613Z,22.08
2023-04-06T22:32:13.716Z,19.80
2023-04-06T22:34:41.057Z,22.85
2023-04-06T22:37:08.067Z,20.30
2023-04-06T22:39:35.151Z,21.17
2023-04-06T22:42:02.252Z,21.40
2023-04-06T22:44:29.181Z,19.77
2023-04-06T22:46:56.225Z,18.25
2023-04-06T22:49:23.219Z,20.42
2023-04-06T22:51:50.262Z,21.67
2023-04-06T22:54:17.217Z,23.60
2023-04-06T22:56:44.262Z,20.35
2023-04-06T22:59:11.455Z,20.60
2023-04-06T23:01:38.493Z,21.60
2023-04-06T23:04:06.052Z,23.38
2023-04-06T23:06:33.118Z,22.98
2023-04-06T23:09:00.114Z,22.48
2023-04-06T23:11:27.093Z,20.52
2023-04-06T23:13:54.006Z,19.13
2023-04-06T23:16:21.347Z,22.27
2023-04-06T23:18:48.325Z,21.45
2023-04-06T23:21:15.646Z,23.00
2023-04-06T23:23:42.578Z,20.75
2023-04-06T23:26:09.517Z,20.98
2023-04-06T23:28:36.487Z,18.58
2023-04-06T23:31:03.406Z,21.40
2023-04-06T23:33:30.519Z,21.13
2023-04-06T23:35:57.529Z,18.52
2023-04-06T23:38:24.548Z,17.35
2023-04-06T23:40:51.521Z,22.23
2023-04-06T23:43:18.482Z,19.38
2023-04-06T23:45:45.683Z,19.98
2023-04-06T23:48:12.678Z,23.55
2023-04-06T23:50:39.856Z,24.40
2023-04-06T23:53:07.092Z,23.60
2023-04-06T23:55:34.156Z,18.38
2023-04-06T23:58:01.990Z,22.80
